logo dgac
Miércoles 19 de Junio del 2024
Buscar por aerodromo o helipuerto
Ingrese nombre de aeródromo, localidad o designador OACI:

Aeródromo: General Bernardo O'Higgins (PUB) (SCCH)

Ubicación: Chillán, VIII Región, Chile (36º 34' 58'' S, 72º 01' 54'' W) Ver ubicación en el mapa

Pistas

Luces
Orientación Dimensión Pendiente Superficie Resistencia APCH THR RWY PAPI
04/22 1750 X 30 0,10 ASPH PCN 54 F/D/X/T No Sí (3º)
Horas de operación HJ
Elevación 152 m / 499 ft
Otra Información Adm : D.G.A.C
Uso : PUB
Tel : +56224392456 +56413835161
Email: aro.chillan@dgac.gob.cl
ubicado : 7 km E Chillán

Otra información ver AIP-Chile Volumen I AD 3.9-3.8-C
CCCM/FCCV Descargar CCCM/FCCV
andera de Chile
Mapa de General  Bernardo O'Higgins (PUB) (SCCH)

Último METAR

METAR SCCH 190900Z AUTO 04006KT 1300 R22/1400VP2000D FG VV002 07/07 Q1019

Último TAF

No hay tafs registrados para este aeródromo

Últimas fotos cámaras

Imagen aerodromo General  Bernardo O'Higgins (PUB) (SCCH) N-Este tomada el 19-06-2024 10:13:32 Imagen aerodromo General  Bernardo O'Higgins (PUB) (SCCH) S-Este tomada el 19-06-2024 10:12:40

Último NOTAM

No hay notams registrados para este aeródromo